sensor_id;sensor_type;location;lat;lon;timestamp;P1;durP1;ratioP1;P2;durP2;ratioP2
7759;SDS011;3924;48.830;9.262;2023-01-09T00:00:42;2.80;;;2.33;;
7759;SDS011;3924;48.830;9.262;2023-01-09T00:03:09;2.33;;;2.13;;
7759;SDS011;3924;48.830;9.262;2023-01-09T00:05:35;2.60;;;2.40;;
7759;SDS011;3924;48.830;9.262;2023-01-09T00:08:02;3.40;;;2.53;;
7759;SDS011;3924;48.830;9.262;2023-01-09T00:10:28;2.57;;;2.03;;
7759;SDS011;3924;48.830;9.262;2023-01-09T00:12:54;2.23;;;2.13;;
7759;SDS011;3924;48.830;9.262;2023-01-09T00:15:21;4.70;;;2.57;;
7759;SDS011;3924;48.830;9.262;2023-01-09T00:17:47;2.10;;;2.00;;
7759;SDS011;3924;48.830;9.262;2023-01-09T00:20:14;2.20;;;2.10;;
7759;SDS011;3924;48.830;9.262;2023-01-09T00:22:41;2.00;;;1.90;;
7759;SDS011;3924;48.830;9.262;2023-01-09T00:25:08;2.30;;;2.20;;
7759;SDS011;3924;48.830;9.262;2023-01-09T00:27:35;2.07;;;1.93;;
7759;SDS011;3924;48.830;9.262;2023-01-09T00:30:02;2.80;;;2.60;;
7759;SDS011;3924;48.830;9.262;2023-01-09T00:32:28;2.43;;;2.10;;
7759;SDS011;3924;48.830;9.262;2023-01-09T00:34:55;2.60;;;2.40;;
7759;SDS011;3924;48.830;9.262;2023-01-09T00:37:22;2.77;;;2.57;;
7759;SDS011;3924;48.830;9.262;2023-01-09T00:39:48;3.97;;;2.43;;
7759;SDS011;3924;48.830;9.262;2023-01-09T00:42:16;2.57;;;2.37;;
7759;SDS011;3924;48.830;9.262;2023-01-09T00:44:54;2.40;;;2.20;;
7759;SDS011;3924;48.830;9.262;2023-01-09T00:47:25;2.40;;;2.20;;
7759;SDS011;3924;48.830;9.262;2023-01-09T00:49:59;2.27;;;2.07;;
7759;SDS011;3924;48.830;9.262;2023-01-09T00:52:30;2.40;;;2.20;;
7759;SDS011;3924;48.830;9.262;2023-01-09T00:55:00;2.53;;;1.97;;
7759;SDS011;3924;48.830;9.262;2023-01-09T00:57:28;4.77;;;2.57;;
7759;SDS011;3924;48.830;9.262;2023-01-09T00:59:55;2.13;;;1.97;;
7759;SDS011;3924;48.830;9.262;2023-01-09T01:02:23;2.03;;;1.83;;
7759;SDS011;3924;48.830;9.262;2023-01-09T01:04:49;2.20;;;2.10;;
7759;SDS011;3924;48.830;9.262;2023-01-09T01:07:34;2.00;;;1.80;;
7759;SDS011;3924;48.830;9.262;2023-01-09T01:10:09;1.67;;;1.57;;
7759;SDS011;3924;48.830;9.262;2023-01-09T01:12:47;1.80;;;1.70;;
7759;SDS011;3924;48.830;9.262;2023-01-09T01:15:15;1.60;;;1.50;;
7759;SDS011;3924;48.830;9.262;2023-01-09T01:17:42;1.50;;;1.40;;
7759;SDS011;3924;48.830;9.262;2023-01-09T01:20:14;1.30;;;1.30;;
7759;SDS011;3924;48.830;9.262;2023-01-09T01:22:43;1.60;;;1.50;;
7759;SDS011;3924;48.830;9.262;2023-01-09T01:25:10;1.87;;;1.70;;
7759;SDS011;3924;48.830;9.262;2023-01-09T01:27:38;1.30;;;1.30;;
7759;SDS011;3924;48.830;9.262;2023-01-09T01:30:05;2.47;;;1.33;;
7759;SDS011;3924;48.830;9.262;2023-01-09T01:32:33;1.67;;;1.40;;
7759;SDS011;3924;48.830;9.262;2023-01-09T01:34:59;1.20;;;1.10;;
7759;SDS011;3924;48.830;9.262;2023-01-09T01:37:26;0.90;;;0.90;;
7759;SDS011;3924;48.830;9.262;2023-01-09T01:39:53;1.17;;;1.10;;
7759;SDS011;3924;48.830;9.262;2023-01-09T01:42:20;0.90;;;0.90;;
7759;SDS011;3924;48.830;9.262;2023-01-09T01:45:01;0.90;;;0.90;;
7759;SDS011;3924;48.830;9.262;2023-01-09T01:47:47;0.70;;;0.70;;
7759;SDS011;3924;48.830;9.262;2023-01-09T01:55:52;0.60;;;0.60;;
7759;SDS011;3924;48.830;9.262;2023-01-09T01:58:37;0.60;;;0.60;;
7759;SDS011;3924;48.830;9.262;2023-01-09T02:01:13;1.80;;;0.70;;
7759;SDS011;3924;48.830;9.262;2023-01-09T02:03:40;0.70;;;0.70;;
7759;SDS011;3924;48.830;9.262;2023-01-09T02:06:08;0.83;;;0.80;;
7759;SDS011;3924;48.830;9.262;2023-01-09T02:08:36;0.50;;;0.50;;
7759;SDS011;3924;48.830;9.262;2023-01-09T02:11:03;0.60;;;0.60;;
7759;SDS011;3924;48.830;9.262;2023-01-09T02:13:31;0.50;;;0.50;;
7759;SDS011;3924;48.830;9.262;2023-01-09T02:18:34;0.40;;;0.40;;
7759;SDS011;3924;48.830;9.262;2023-01-09T02:21:16;0.73;;;0.60;;
7759;SDS011;3924;48.830;9.262;2023-01-09T02:24:13;0.50;;;0.50;;
7759;SDS011;3924;48.830;9.262;2023-01-09T02:27:18;0.50;;;0.50;;
7759;SDS011;3924;48.830;9.262;2023-01-09T02:33:05;0.50;;;0.50;;
7759;SDS011;3924;48.830;9.262;2023-01-09T02:44:11;0.70;;;0.70;;
7759;SDS011;3924;48.830;9.262;2023-01-09T02:47:33;0.73;;;0.60;;
7759;SDS011;3924;48.830;9.262;2023-01-09T02:49:55;0.50;;;0.50;;
7759;SDS011;3924;48.830;9.262;2023-01-09T02:55:40;0.50;;;0.50;;
7759;SDS011;3924;48.830;9.262;2023-01-09T02:58:10;0.50;;;0.50;;
7759;SDS011;3924;48.830;9.262;2023-01-09T03:00:49;0.40;;;0.40;;
7759;SDS011;3924;48.830;9.262;2023-01-09T03:06:23;0.50;;;0.50;;
7759;SDS011;3924;48.830;9.262;2023-01-09T03:09:17;0.40;;;0.40;;
7759;SDS011;3924;48.830;9.262;2023-01-09T03:11:51;0.40;;;0.40;;
7759;SDS011;3924;48.830;9.262;2023-01-09T03:14:24;0.50;;;0.50;;
7759;SDS011;3924;48.830;9.262;2023-01-09T03:16:52;0.30;;;0.30;;
7759;SDS011;3924;48.830;9.262;2023-01-09T03:19:24;0.40;;;0.40;;
7759;SDS011;3924;48.830;9.262;2023-01-09T03:21:55;0.40;;;0.40;;
7759;SDS011;3924;48.830;9.262;2023-01-09T03:24:22;0.40;;;0.40;;
7759;SDS011;3924;48.830;9.262;2023-01-09T03:26:49;0.30;;;0.30;;
7759;SDS011;3924;48.830;9.262;2023-01-09T03:29:16;0.40;;;0.40;;
7759;SDS011;3924;48.830;9.262;2023-01-09T03:31:42;0.30;;;0.30;;
7759;SDS011;3924;48.830;9.262;2023-01-09T03:34:08;0.30;;;0.30;;
7759;SDS011;3924;48.830;9.262;2023-01-09T03:36:35;0.30;;;0.30;;
7759;SDS011;3924;48.830;9.262;2023-01-09T03:39:02;0.30;;;0.30;;
7759;SDS011;3924;48.830;9.262;2023-01-09T03:41:28;0.30;;;0.30;;
7759;SDS011;3924;48.830;9.262;2023-01-09T03:43:54;0.40;;;0.40;;
7759;SDS011;3924;48.830;9.262;2023-01-09T03:46:21;2.77;;;0.50;;
7759;SDS011;3924;48.830;9.262;2023-01-09T03:48:47;0.57;;;0.30;;
7759;SDS011;3924;48.830;9.262;2023-01-09T03:51:14;0.30;;;0.30;;
7759;SDS011;3924;48.830;9.262;2023-01-09T03:53:40;0.43;;;0.40;;
7759;SDS011;3924;48.830;9.262;2023-01-09T03:56:07;0.40;;;0.40;;
7759;SDS011;3924;48.830;9.262;2023-01-09T03:58:33;0.30;;;0.30;;
7759;SDS011;3924;48.830;9.262;2023-01-09T04:01:01;0.40;;;0.40;;
7759;SDS011;3924;48.830;9.262;2023-01-09T04:03:29;0.50;;;0.50;;
7759;SDS011;3924;48.830;9.262;2023-01-09T04:05:57;0.40;;;0.40;;
7759;SDS011;3924;48.830;9.262;2023-01-09T04:08:23;0.40;;;0.40;;
7759;SDS011;3924;48.830;9.262;2023-01-09T04:10:50;0.53;;;0.53;;
7759;SDS011;3924;48.830;9.262;2023-01-09T04:13:17;0.50;;;0.50;;
7759;SDS011;3924;48.830;9.262;2023-01-09T04:15:44;0.30;;;0.30;;
7759;SDS011;3924;48.830;9.262;2023-01-09T04:18:10;0.40;;;0.40;;
7759;SDS011;3924;48.830;9.262;2023-01-09T04:20:37;0.40;;;0.40;;
7759;SDS011;3924;48.830;9.262;2023-01-09T04:23:03;0.30;;;0.30;;
7759;SDS011;3924;48.830;9.262;2023-01-09T04:25:30;0.30;;;0.30;;
7759;SDS011;3924;48.830;9.262;2023-01-09T04:27:57;0.53;;;0.53;;
7759;SDS011;3924;48.830;9.262;2023-01-09T04:30:23;0.33;;;0.33;;
7759;SDS011;3924;48.830;9.262;2023-01-09T04:32:50;0.30;;;0.30;;
7759;SDS011;3924;48.830;9.262;2023-01-09T04:35:17;0.40;;;0.40;;
7759;SDS011;3924;48.830;9.262;2023-01-09T04:37:45;0.40;;;0.40;;
7759;SDS011;3924;48.830;9.262;2023-01-09T04:40:11;0.37;;;0.30;;
7759;SDS011;3924;48.830;9.262;2023-01-09T04:42:39;0.40;;;0.40;;
7759;SDS011;3924;48.830;9.262;2023-01-09T04:45:06;0.40;;;0.40;;
7759;SDS011;3924;48.830;9.262;2023-01-09T04:47:34;0.30;;;0.30;;
7759;SDS011;3924;48.830;9.262;2023-01-09T04:50:01;0.30;;;0.30;;
7759;SDS011;3924;48.830;9.262;2023-01-09T04:52:27;0.40;;;0.40;;
7759;SDS011;3924;48.830;9.262;2023-01-09T04:54:55;0.50;;;0.50;;
7759;SDS011;3924;48.830;9.262;2023-01-09T04:57:21;2.83;;;0.50;;
7759;SDS011;3924;48.830;9.262;2023-01-09T04:59:47;0.40;;;0.40;;
7759;SDS011;3924;48.830;9.262;2023-01-09T05:02:14;0.93;;;0.50;;
7759;SDS011;3924;48.830;9.262;2023-01-09T05:04:40;0.33;;;0.33;;
7759;SDS011;3924;48.830;9.262;2023-01-09T05:07:07;0.30;;;0.30;;
7759;SDS011;3924;48.830;9.262;2023-01-09T05:09:34;0.47;;;0.40;;
7759;SDS011;3924;48.830;9.262;2023-01-09T05:12:01;0.40;;;0.40;;
7759;SDS011;3924;48.830;9.262;2023-01-09T05:14:27;0.50;;;0.50;;
7759;SDS011;3924;48.830;9.262;2023-01-09T05:16:54;1.23;;;0.60;;
7759;SDS011;3924;48.830;9.262;2023-01-09T05:19:21;0.40;;;0.40;;
7759;SDS011;3924;48.830;9.262;2023-01-09T05:21:48;0.40;;;0.40;;
7759;SDS011;3924;48.830;9.262;2023-01-09T05:24:15;0.40;;;0.40;;
7759;SDS011;3924;48.830;9.262;2023-01-09T05:26:41;1.03;;;0.40;;
7759;SDS011;3924;48.830;9.262;2023-01-09T05:29:08;0.40;;;0.40;;
7759;SDS011;3924;48.830;9.262;2023-01-09T05:31:35;0.37;;;0.30;;
7759;SDS011;3924;48.830;9.262;2023-01-09T05:34:01;0.40;;;0.40;;
7759;SDS011;3924;48.830;9.262;2023-01-09T05:36:28;0.77;;;0.47;;
7759;SDS011;3924;48.830;9.262;2023-01-09T05:38:54;0.63;;;0.63;;
7759;SDS011;3924;48.830;9.262;2023-01-09T05:41:23;0.57;;;0.40;;
7759;SDS011;3924;48.830;9.262;2023-01-09T05:43:51;0.70;;;0.60;;
7759;SDS011;3924;48.830;9.262;2023-01-09T05:46:17;1.33;;;0.60;;
7759;SDS011;3924;48.830;9.262;2023-01-09T05:48:44;1.13;;;0.50;;
7759;SDS011;3924;48.830;9.262;2023-01-09T05:51:11;0.73;;;0.53;;
7759;SDS011;3924;48.830;9.262;2023-01-09T05:53:38;0.90;;;0.50;;
7759;SDS011;3924;48.830;9.262;2023-01-09T05:56:04;1.30;;;0.60;;
7759;SDS011;3924;48.830;9.262;2023-01-09T05:58:31;0.40;;;0.40;;
7759;SDS011;3924;48.830;9.262;2023-01-09T06:00:57;0.40;;;0.40;;
7759;SDS011;3924;48.830;9.262;2023-01-09T06:03:24;0.47;;;0.47;;
7759;SDS011;3924;48.830;9.262;2023-01-09T06:05:50;0.47;;;0.47;;
7759;SDS011;3924;48.830;9.262;2023-01-09T06:08:17;0.53;;;0.53;;
7759;SDS011;3924;48.830;9.262;2023-01-09T06:10:44;0.40;;;0.40;;
7759;SDS011;3924;48.830;9.262;2023-01-09T06:13:12;0.60;;;0.60;;
7759;SDS011;3924;48.830;9.262;2023-01-09T06:15:38;0.90;;;0.90;;
7759;SDS011;3924;48.830;9.262;2023-01-09T06:18:05;0.87;;;0.77;;
7759;SDS011;3924;48.830;9.262;2023-01-09T06:20:31;0.60;;;0.60;;
7759;SDS011;3924;48.830;9.262;2023-01-09T06:22:58;1.07;;;0.70;;
7759;SDS011;3924;48.830;9.262;2023-01-09T06:25:24;0.60;;;0.60;;
7759;SDS011;3924;48.830;9.262;2023-01-09T06:27:51;0.70;;;0.70;;
7759;SDS011;3924;48.830;9.262;2023-01-09T06:30:18;0.67;;;0.67;;
7759;SDS011;3924;48.830;9.262;2023-01-09T06:32:48;1.13;;;0.70;;
7759;SDS011;3924;48.830;9.262;2023-01-09T06:35:15;0.90;;;0.50;;
7759;SDS011;3924;48.830;9.262;2023-01-09T06:37:46;0.40;;;0.40;;
7759;SDS011;3924;48.830;9.262;2023-01-09T06:40:13;0.60;;;0.60;;
7759;SDS011;3924;48.830;9.262;2023-01-09T06:42:43;0.77;;;0.63;;
7759;SDS011;3924;48.830;9.262;2023-01-09T06:45:10;0.60;;;0.60;;
7759;SDS011;3924;48.830;9.262;2023-01-09T06:47:37;4.90;;;0.70;;
7759;SDS011;3924;48.830;9.262;2023-01-09T06:50:04;0.70;;;0.70;;
7759;SDS011;3924;48.830;9.262;2023-01-09T06:52:31;2.27;;;0.83;;
7759;SDS011;3924;48.830;9.262;2023-01-09T06:54:58;0.73;;;0.50;;
7759;SDS011;3924;48.830;9.262;2023-01-09T06:57:24;1.37;;;0.50;;
7759;SDS011;3924;48.830;9.262;2023-01-09T06:59:51;0.60;;;0.60;;
7759;SDS011;3924;48.830;9.262;2023-01-09T07:02:19;1.93;;;0.50;;
7759;SDS011;3924;48.830;9.262;2023-01-09T07:04:46;0.50;;;0.50;;
7759;SDS011;3924;48.830;9.262;2023-01-09T07:07:13;0.57;;;0.57;;
7759;SDS011;3924;48.830;9.262;2023-01-09T07:09:39;0.50;;;0.50;;
7759;SDS011;3924;48.830;9.262;2023-01-09T07:12:06;4.43;;;0.73;;
7759;SDS011;3924;48.830;9.262;2023-01-09T07:14:32;0.80;;;0.70;;
7759;SDS011;3924;48.830;9.262;2023-01-09T07:16:59;0.73;;;0.70;;
7759;SDS011;3924;48.830;9.262;2023-01-09T07:19:25;0.70;;;0.70;;
7759;SDS011;3924;48.830;9.262;2023-01-09T07:21:52;1.10;;;0.80;;
7759;SDS011;3924;48.830;9.262;2023-01-09T07:24:18;0.80;;;0.80;;
7759;SDS011;3924;48.830;9.262;2023-01-09T07:26:45;1.23;;;0.70;;
7759;SDS011;3924;48.830;9.262;2023-01-09T07:29:11;0.87;;;0.70;;
7759;SDS011;3924;48.830;9.262;2023-01-09T07:31:38;2.50;;;0.93;;
7759;SDS011;3924;48.830;9.262;2023-01-09T07:34:04;0.50;;;0.50;;
7759;SDS011;3924;48.830;9.262;2023-01-09T07:36:31;4.10;;;1.17;;
7759;SDS011;3924;48.830;9.262;2023-01-09T07:38:57;3.80;;;1.10;;
7759;SDS011;3924;48.830;9.262;2023-01-09T07:41:23;0.83;;;0.80;;
7759;SDS011;3924;48.830;9.262;2023-01-09T07:43:50;0.80;;;0.80;;
7759;SDS011;3924;48.830;9.262;2023-01-09T07:46:16;1.37;;;0.90;;
7759;SDS011;3924;48.830;9.262;2023-01-09T07:48:43;1.00;;;0.87;;
7759;SDS011;3924;48.830;9.262;2023-01-09T07:51:09;0.63;;;0.60;;
7759;SDS011;3924;48.830;9.262;2023-01-09T07:53:36;0.70;;;0.70;;
7759;SDS011;3924;48.830;9.262;2023-01-09T07:56:03;1.97;;;1.10;;
7759;SDS011;3924;48.830;9.262;2023-01-09T07:58:30;2.67;;;0.70;;
7759;SDS011;3924;48.830;9.262;2023-01-09T08:00:57;2.23;;;0.70;;
7759;SDS011;3924;48.830;9.262;2023-01-09T08:03:23;1.17;;;0.63;;
7759;SDS011;3924;48.830;9.262;2023-01-09T08:05:51;0.70;;;0.70;;
7759;SDS011;3924;48.830;9.262;2023-01-09T08:08:18;1.90;;;0.80;;
7759;SDS011;3924;48.830;9.262;2023-01-09T08:10:44;1.10;;;0.97;;
7759;SDS011;3924;48.830;9.262;2023-01-09T08:13:11;0.67;;;0.60;;
7759;SDS011;3924;48.830;9.262;2023-01-09T08:15:37;0.90;;;0.90;;
7759;SDS011;3924;48.830;9.262;2023-01-09T08:18:04;1.60;;;0.90;;
7759;SDS011;3924;48.830;9.262;2023-01-09T08:20:30;2.73;;;0.67;;
7759;SDS011;3924;48.830;9.262;2023-01-09T08:22:57;1.87;;;0.77;;
7759;SDS011;3924;48.830;9.262;2023-01-09T08:25:24;1.97;;;0.80;;
7759;SDS011;3924;48.830;9.262;2023-01-09T08:27:50;0.93;;;0.80;;
7759;SDS011;3924;48.830;9.262;2023-01-09T08:30:17;1.03;;;0.67;;
7759;SDS011;3924;48.830;9.262;2023-01-09T08:32:47;1.20;;;0.80;;
7759;SDS011;3924;48.830;9.262;2023-01-09T08:35:17;2.23;;;0.90;;
7759;SDS011;3924;48.830;9.262;2023-01-09T08:37:44;0.70;;;0.70;;
7759;SDS011;3924;48.830;9.262;2023-01-09T08:40:12;0.97;;;0.70;;
7759;SDS011;3924;48.830;9.262;2023-01-09T08:42:40;4.00;;;0.53;;
7759;SDS011;3924;48.830;9.262;2023-01-09T08:45:25;0.50;;;0.50;;
7759;SDS011;3924;48.830;9.262;2023-01-09T08:48:10;1.23;;;1.07;;
7759;SDS011;3924;48.830;9.262;2023-01-09T08:50:37;0.67;;;0.67;;
7759;SDS011;3924;48.830;9.262;2023-01-09T08:53:03;2.17;;;0.70;;
7759;SDS011;3924;48.830;9.262;2023-01-09T08:55:29;2.03;;;0.50;;
7759;SDS011;3924;48.830;9.262;2023-01-09T08:57:56;3.10;;;0.80;;
7759;SDS011;3924;48.830;9.262;2023-01-09T09:00:23;2.57;;;0.80;;
7759;SDS011;3924;48.830;9.262;2023-01-09T09:02:54;1.07;;;0.87;;
7759;SDS011;3924;48.830;9.262;2023-01-09T09:05:23;0.87;;;0.50;;
7759;SDS011;3924;48.830;9.262;2023-01-09T09:07:51;5.40;;;0.70;;
7759;SDS011;3924;48.830;9.262;2023-01-09T09:10:24;2.93;;;0.90;;
7759;SDS011;3924;48.830;9.262;2023-01-09T09:12:52;3.07;;;0.80;;
7759;SDS011;3924;48.830;9.262;2023-01-09T09:15:20;1.57;;;0.70;;
7759;SDS011;3924;48.830;9.262;2023-01-09T09:17:58;1.17;;;0.77;;
7759;SDS011;3924;48.830;9.262;2023-01-09T09:20:28;3.13;;;0.70;;
7759;SDS011;3924;48.830;9.262;2023-01-09T09:22:55;0.83;;;0.67;;
7759;SDS011;3924;48.830;9.262;2023-01-09T09:25:22;0.70;;;0.70;;
7759;SDS011;3924;48.830;9.262;2023-01-09T09:27:49;1.90;;;1.10;;
7759;SDS011;3924;48.830;9.262;2023-01-09T09:30:16;1.97;;;0.60;;
7759;SDS011;3924;48.830;9.262;2023-01-09T09:32:44;3.50;;;0.80;;
7759;SDS011;3924;48.830;9.262;2023-01-09T09:35:11;0.50;;;0.50;;
7759;SDS011;3924;48.830;9.262;2023-01-09T09:37:38;0.80;;;0.80;;
7759;SDS011;3924;48.830;9.262;2023-01-09T09:40:05;0.77;;;0.77;;
7759;SDS011;3924;48.830;9.262;2023-01-09T09:45:37;2.17;;;1.00;;
7759;SDS011;3924;48.830;9.262;2023-01-09T09:56:29;0.50;;;0.50;;
7759;SDS011;3924;48.830;9.262;2023-01-09T09:59:03;1.10;;;0.77;;
7759;SDS011;3924;48.830;9.262;2023-01-09T10:01:37;1.10;;;0.70;;
7759;SDS011;3924;48.830;9.262;2023-01-09T10:04:13;1.80;;;0.67;;
7759;SDS011;3924;48.830;9.262;2023-01-09T10:06:45;0.67;;;0.60;;
7759;SDS011;3924;48.830;9.262;2023-01-09T10:12:27;2.10;;;0.70;;
7759;SDS011;3924;48.830;9.262;2023-01-09T10:15:08;0.97;;;0.97;;
7759;SDS011;3924;48.830;9.262;2023-01-09T10:20:55;0.77;;;0.70;;
7759;SDS011;3924;48.830;9.262;2023-01-09T10:23:51;0.60;;;0.60;;
7759;SDS011;3924;48.830;9.262;2023-01-09T10:26:52;4.03;;;1.03;;
7759;SDS011;3924;48.830;9.262;2023-01-09T10:29:37;5.03;;;0.90;;
7759;SDS011;3924;48.830;9.262;2023-01-09T10:34:48;2.90;;;0.70;;
7759;SDS011;3924;48.830;9.262;2023-01-09T10:37:38;0.63;;;0.60;;
7759;SDS011;3924;48.830;9.262;2023-01-09T10:40:13;1.10;;;0.70;;
7759;SDS011;3924;48.830;9.262;2023-01-09T10:42:52;3.87;;;1.20;;
7759;SDS011;3924;48.830;9.262;2023-01-09T10:45:32;2.60;;;0.97;;
7759;SDS011;3924;48.830;9.262;2023-01-09T10:48:05;1.50;;;0.80;;
7759;SDS011;3924;48.830;9.262;2023-01-09T10:50:42;0.90;;;0.90;;
7759;SDS011;3924;48.830;9.262;2023-01-09T10:53:24;1.37;;;0.70;;
7759;SDS011;3924;48.830;9.262;2023-01-09T10:55:54;0.77;;;0.50;;
7759;SDS011;3924;48.830;9.262;2023-01-09T10:58:25;1.93;;;0.97;;
7759;SDS011;3924;48.830;9.262;2023-01-09T11:00:52;0.93;;;0.90;;
7759;SDS011;3924;48.830;9.262;2023-01-09T11:03:20;0.70;;;0.70;;
7759;SDS011;3924;48.830;9.262;2023-01-09T11:05:52;8.50;;;1.10;;
7759;SDS011;3924;48.830;9.262;2023-01-09T11:08:23;0.90;;;0.90;;
7759;SDS011;3924;48.830;9.262;2023-01-09T11:10:57;3.07;;;1.00;;
7759;SDS011;3924;48.830;9.262;2023-01-09T11:18:31;2.00;;;0.87;;
7759;SDS011;3924;48.830;9.262;2023-01-09T11:21:12;1.80;;;0.70;;
7759;SDS011;3924;48.830;9.262;2023-01-09T11:23:53;2.27;;;0.80;;
7759;SDS011;3924;48.830;9.262;2023-01-09T11:26:21;2.53;;;0.70;;
7759;SDS011;3924;48.830;9.262;2023-01-09T11:29:06;3.13;;;0.70;;
7759;SDS011;3924;48.830;9.262;2023-01-09T11:31:36;3.80;;;0.73;;
7759;SDS011;3924;48.830;9.262;2023-01-09T11:34:05;0.73;;;0.63;;
7759;SDS011;3924;48.830;9.262;2023-01-09T11:36:40;2.17;;;0.77;;
7759;SDS011;3924;48.830;9.262;2023-01-09T11:39:13;0.77;;;0.60;;
7759;SDS011;3924;48.830;9.262;2023-01-09T11:41:54;1.63;;;0.83;;
7759;SDS011;3924;48.830;9.262;2023-01-09T11:44:24;4.03;;;1.20;;
7759;SDS011;3924;48.830;9.262;2023-01-09T11:46:52;4.70;;;1.00;;
7759;SDS011;3924;48.830;9.262;2023-01-09T11:49:21;2.27;;;0.50;;
7759;SDS011;3924;48.830;9.262;2023-01-09T11:54:47;4.13;;;0.70;;
7759;SDS011;3924;48.830;9.262;2023-01-09T11:57:20;6.23;;;0.73;;
7759;SDS011;3924;48.830;9.262;2023-01-09T11:59:49;4.73;;;1.00;;
7759;SDS011;3924;48.830;9.262;2023-01-09T12:02:24;0.50;;;0.50;;
7759;SDS011;3924;48.830;9.262;2023-01-09T12:10:26;0.60;;;0.60;;
7759;SDS011;3924;48.830;9.262;2023-01-09T12:13:02;4.77;;;0.93;;
7759;SDS011;3924;48.830;9.262;2023-01-09T12:21:48;1.23;;;0.70;;
7759;SDS011;3924;48.830;9.262;2023-01-09T12:25:05;1.57;;;0.63;;
7759;SDS011;3924;48.830;9.262;2023-01-09T12:27:30;1.43;;;0.63;;
7759;SDS011;3924;48.830;9.262;2023-01-09T12:36:28;3.13;;;0.80;;
7759;SDS011;3924;48.830;9.262;2023-01-09T12:47:54;6.03;;;2.00;;
7759;SDS011;3924;48.830;9.262;2023-01-09T12:50:35;1.73;;;0.90;;
7759;SDS011;3924;48.830;9.262;2023-01-09T12:53:17;0.90;;;0.90;;
7759;SDS011;3924;48.830;9.262;2023-01-09T12:55:57;2.10;;;1.30;;
7759;SDS011;3924;48.830;9.262;2023-01-09T12:58:38;0.70;;;0.50;;
7759;SDS011;3924;48.830;9.262;2023-01-09T13:01:11;0.83;;;0.80;;
7759;SDS011;3924;48.830;9.262;2023-01-09T13:03:56;0.80;;;0.80;;
7759;SDS011;3924;48.830;9.262;2023-01-09T13:06:24;2.13;;;0.73;;
7759;SDS011;3924;48.830;9.262;2023-01-09T13:11:41;0.77;;;0.57;;
7759;SDS011;3924;48.830;9.262;2023-01-09T13:14:17;1.43;;;0.90;;
7759;SDS011;3924;48.830;9.262;2023-01-09T13:16:49;2.30;;;0.90;;
7759;SDS011;3924;48.830;9.262;2023-01-09T13:19:20;0.93;;;0.70;;
7759;SDS011;3924;48.830;9.262;2023-01-09T13:21:52;0.50;;;0.50;;
7759;SDS011;3924;48.830;9.262;2023-01-09T13:24:35;0.80;;;0.67;;
7759;SDS011;3924;48.830;9.262;2023-01-09T13:27:14;1.53;;;0.70;;
7759;SDS011;3924;48.830;9.262;2023-01-09T13:29:46;0.80;;;0.80;;
7759;SDS011;3924;48.830;9.262;2023-01-09T13:34:55;3.70;;;0.90;;
7759;SDS011;3924;48.830;9.262;2023-01-09T13:37:30;0.67;;;0.67;;
7759;SDS011;3924;48.830;9.262;2023-01-09T13:40:00;2.23;;;0.87;;
7759;SDS011;3924;48.830;9.262;2023-01-09T13:42:29;2.67;;;1.00;;
7759;SDS011;3924;48.830;9.262;2023-01-09T13:47:42;0.60;;;0.60;;
7759;SDS011;3924;48.830;9.262;2023-01-09T13:55:21;3.37;;;1.00;;
7759;SDS011;3924;48.830;9.262;2023-01-09T13:58:13;2.20;;;0.77;;
7759;SDS011;3924;48.830;9.262;2023-01-09T14:00:46;1.13;;;0.80;;
7759;SDS011;3924;48.830;9.262;2023-01-09T14:08:14;0.57;;;0.57;;
7759;SDS011;3924;48.830;9.262;2023-01-09T14:13:19;0.67;;;0.60;;
7759;SDS011;3924;48.830;9.262;2023-01-09T14:15:48;0.60;;;0.60;;
7759;SDS011;3924;48.830;9.262;2023-01-09T14:18:18;0.97;;;0.67;;
7759;SDS011;3924;48.830;9.262;2023-01-09T14:23:22;2.13;;;1.10;;
7759;SDS011;3924;48.830;9.262;2023-01-09T14:26:17;0.53;;;0.50;;
7759;SDS011;3924;48.830;9.262;2023-01-09T14:34:56;2.87;;;1.20;;
7759;SDS011;3924;48.830;9.262;2023-01-09T14:37:26;1.47;;;1.00;;
7759;SDS011;3924;48.830;9.262;2023-01-09T14:39:55;0.83;;;0.83;;
7759;SDS011;3924;48.830;9.262;2023-01-09T14:42:24;0.70;;;0.70;;
7759;SDS011;3924;48.830;9.262;2023-01-09T14:44:59;2.60;;;0.97;;
7759;SDS011;3924;48.830;9.262;2023-01-09T14:49:57;1.90;;;1.30;;
7759;SDS011;3924;48.830;9.262;2023-01-09T14:52:35;3.30;;;1.17;;
7759;SDS011;3924;48.830;9.262;2023-01-09T14:55:05;0.87;;;0.80;;
7759;SDS011;3924;48.830;9.262;2023-01-09T14:58:09;0.70;;;0.70;;
7759;SDS011;3924;48.830;9.262;2023-01-09T15:01:02;1.43;;;0.80;;
7759;SDS011;3924;48.830;9.262;2023-01-09T15:03:37;2.63;;;0.83;;
7759;SDS011;3924;48.830;9.262;2023-01-09T15:06:27;2.23;;;1.03;;
7759;SDS011;3924;48.830;9.262;2023-01-09T15:08:57;0.70;;;0.70;;
7759;SDS011;3924;48.830;9.262;2023-01-09T15:11:28;1.97;;;0.90;;
7759;SDS011;3924;48.830;9.262;2023-01-09T15:13:57;1.80;;;1.23;;
7759;SDS011;3924;48.830;9.262;2023-01-09T15:16:25;0.63;;;0.63;;
7759;SDS011;3924;48.830;9.262;2023-01-09T15:18:57;2.00;;;0.53;;
7759;SDS011;3924;48.830;9.262;2023-01-09T15:21:27;0.73;;;0.73;;
7759;SDS011;3924;48.830;9.262;2023-01-09T15:27:09;0.77;;;0.70;;
7759;SDS011;3924;48.830;9.262;2023-01-09T15:29:38;2.47;;;0.70;;
7759;SDS011;3924;48.830;9.262;2023-01-09T15:32:09;3.87;;;1.00;;
7759;SDS011;3924;48.830;9.262;2023-01-09T15:34:38;1.00;;;0.77;;
7759;SDS011;3924;48.830;9.262;2023-01-09T15:37:05;1.60;;;0.90;;
7759;SDS011;3924;48.830;9.262;2023-01-09T15:39:49;1.40;;;0.60;;
7759;SDS011;3924;48.830;9.262;2023-01-09T15:42:23;0.77;;;0.77;;
7759;SDS011;3924;48.830;9.262;2023-01-09T15:45:15;0.63;;;0.63;;
7759;SDS011;3924;48.830;9.262;2023-01-09T15:47:48;0.70;;;0.63;;
7759;SDS011;3924;48.830;9.262;2023-01-09T15:50:15;0.70;;;0.70;;
7759;SDS011;3924;48.830;9.262;2023-01-09T15:52:43;4.13;;;1.50;;
7759;SDS011;3924;48.830;9.262;2023-01-09T15:55:53;1.27;;;0.77;;
7759;SDS011;3924;48.830;9.262;2023-01-09T15:58:04;1.37;;;0.90;;
7759;SDS011;3924;48.830;9.262;2023-01-09T16:00:55;0.60;;;0.60;;
7759;SDS011;3924;48.830;9.262;2023-01-09T16:03:41;0.53;;;0.53;;
7759;SDS011;3924;48.830;9.262;2023-01-09T16:06:08;1.50;;;0.60;;
7759;SDS011;3924;48.830;9.262;2023-01-09T16:08:40;1.90;;;0.70;;
7759;SDS011;3924;48.830;9.262;2023-01-09T16:16:29;1.53;;;0.70;;
7759;SDS011;3924;48.830;9.262;2023-01-09T16:18:58;1.03;;;0.73;;
7759;SDS011;3924;48.830;9.262;2023-01-09T16:21:35;0.60;;;0.60;;
7759;SDS011;3924;48.830;9.262;2023-01-09T16:26:33;0.80;;;0.80;;
7759;SDS011;3924;48.830;9.262;2023-01-09T16:29:45;1.10;;;1.03;;
7759;SDS011;3924;48.830;9.262;2023-01-09T16:31:59;1.17;;;0.80;;
7759;SDS011;3924;48.830;9.262;2023-01-09T16:34:28;2.13;;;1.07;;
7759;SDS011;3924;48.830;9.262;2023-01-09T16:36:54;2.33;;;0.90;;
7759;SDS011;3924;48.830;9.262;2023-01-09T16:39:21;0.83;;;0.80;;
7759;SDS011;3924;48.830;9.262;2023-01-09T16:41:50;1.10;;;1.10;;
7759;SDS011;3924;48.830;9.262;2023-01-09T16:44:36;1.87;;;1.20;;
7759;SDS011;3924;48.830;9.262;2023-01-09T16:47:02;1.13;;;0.80;;
7759;SDS011;3924;48.830;9.262;2023-01-09T16:49:29;2.53;;;1.43;;
7759;SDS011;3924;48.830;9.262;2023-01-09T16:51:55;1.70;;;1.40;;
7759;SDS011;3924;48.830;9.262;2023-01-09T16:54:22;4.67;;;2.57;;
7759;SDS011;3924;48.830;9.262;2023-01-09T16:56:49;4.00;;;1.60;;
7759;SDS011;3924;48.830;9.262;2023-01-09T16:59:19;3.40;;;1.63;;
7759;SDS011;3924;48.830;9.262;2023-01-09T17:01:51;2.63;;;1.90;;
7759;SDS011;3924;48.830;9.262;2023-01-09T17:04:19;3.80;;;1.60;;
7759;SDS011;3924;48.830;9.262;2023-01-09T17:06:48;2.93;;;1.70;;
7759;SDS011;3924;48.830;9.262;2023-01-09T17:09:16;1.60;;;1.50;;
7759;SDS011;3924;48.830;9.262;2023-01-09T17:11:44;1.63;;;1.13;;
7759;SDS011;3924;48.830;9.262;2023-01-09T17:14:11;2.30;;;1.63;;
7759;SDS011;3924;48.830;9.262;2023-01-09T17:16:39;1.83;;;1.00;;
7759;SDS011;3924;48.830;9.262;2023-01-09T17:19:14;0.80;;;0.80;;
7759;SDS011;3924;48.830;9.262;2023-01-09T17:21:44;0.90;;;0.90;;
7759;SDS011;3924;48.830;9.262;2023-01-09T17:24:11;0.63;;;0.63;;
7759;SDS011;3924;48.830;9.262;2023-01-09T17:26:56;0.70;;;0.70;;
7759;SDS011;3924;48.830;9.262;2023-01-09T17:32:13;1.47;;;0.90;;
7759;SDS011;3924;48.830;9.262;2023-01-09T17:34:41;2.20;;;0.60;;
7759;SDS011;3924;48.830;9.262;2023-01-09T17:37:17;1.07;;;0.50;;
7759;SDS011;3924;48.830;9.262;2023-01-09T17:39:44;0.70;;;0.70;;
7759;SDS011;3924;48.830;9.262;2023-01-09T17:42:11;0.73;;;0.70;;
7759;SDS011;3924;48.830;9.262;2023-01-09T17:44:37;0.63;;;0.60;;